CMA CGM Balzac — DIHN — position and weather

sailwx.info

Track history (hours):
 
Tides and Currents Weather Stations Pressure Air Temp Water Temp Dewpoint Dewpoint Depression Visibility Wind Speed Wind Dir Waves Ship Positions

CMA CGM Balzac

Last reported at 2015-May-01 06:08 UTC. Time now 2015-May-28 11:40 UTC.
Position N 24°36' E 119°18'.
Warning: this ship's position is 27 days out of date.

Length 300.3 m; beam 40.3 m; draft 14 m.

Type: Ship. MMSI: 211378810.

Date/timePositionNaut miles runAvg speedWind from/ knotsBaromVisibWave heightAir tempDewpointWater temp
2015-May-01 06:08N 24°36' E 119°18'2514.6
2015-May-01 04:25N 24°19' E 118°57'1414.0
2015-May-01 03:26N 24°10' E 118°46'1314.3
2015-May-01 02:32N 24°02' E 118°35'247 6.3
2015-Apr-29 11:31N 22°19' E 114°30'1516.3
2015-Apr-29 10:33N 22°08' E 114°19'1412.3
2015-Apr-29 09:24N 22°16' E 114°06'4 4.6
2015-Apr-29 08:29N 22°20' E 114°07'0 0.0
2015-Apr-29 07:16N 22°20' E 114°07'0 0.0
2015-Apr-29 06:10N 22°20' E 114°07'0 0.0
2015-Apr-29 05:09N 22°20' E 114°07'0 0.0
2015-Apr-29 04:33N 22°20' E 114°07'0 0.0
2015-Apr-29 03:33N 22°20' E 114°07'0 0.0
2015-Apr-29 02:08N 22°20' E 114°07'0 0.0
2015-Apr-29 01:32N 22°20' E 114°07'0 0.0
2015-Apr-29 00:31N 22°20' E 114°07'0 0.0
2015-Apr-28 23:28N 22°20' E 114°07'0 0.0
2015-Apr-28 22:30N 22°20' E 114°07'0 0.0
2015-Apr-28 21:30N 22°20' E 114°07'0 0.0
2015-Apr-28 20:33N 22°20' E 114°07'0 0.0
2015-Apr-28 19:32N 22°20' E 114°07'0 0.0
2015-Apr-28 18:29N 22°20' E 114°07'0 0.0
2015-Apr-28 17:31N 22°20' E 114°07'1 1.3
2015-Apr-28 16:33N 22°19' E 114°06'8 6.9
2015-Apr-28 15:22N 22°12' E 114°11'7 7.2
2015-Apr-28 14:27N 22°09' E 114°17'  
2015-Apr-24 13:32N 01°15' E 104°06'1110.9
2015-Apr-24 12:33N 01°13' E 103°55'6 6.0
2015-Apr-24 11:32N 01°10' E 103°50'6 6.3
2015-Apr-24 10:33N 01°14' E 103°55'8 7.8
2015-Apr-24 09:33N 01°16' E 104°02'5 5.3
2015-Apr-24 08:33N 01°16' E 104°07'7 7.4
2015-Apr-24 07:34N 01°15' E 104°00'7815.6
2015-Apr-24 02:34N 01°38' E 102°45'1918.6
2015-Apr-24 01:33N 01°46' E 102°29'  
2015-Apr-21 15:00N 06°12' E 093°24'   320 / 71011.610.8 28.523.630.0
Track history (hours):
 
Tides and Currents Weather Stations Pressure Air Temp Water Temp Dewpoint Dewpoint Depression Visibility Wind Speed Wind Dir Waves Ship Positions

CMA CGM Balzac

Last reported at 2015-May-01 06:08 UTC. Time now 2015-May-28 11:40 UTC.
Position N 24°36' E 119°18'.
Warning: this ship's position is 27 days out of date.

Length 300.3 m; beam 40.3 m; draft 14 m.

Type: Ship. MMSI: 211378810.

Date/timePositionNaut miles runAvg speedWind from/ knotsBaromVisibWave heightAir tempDewpointWater temp
2015-May-01 06:08N 24°36' E 119°18'2514.6
2015-May-01 04:25N 24°19' E 118°57'1414.0
2015-May-01 03:26N 24°10' E 118°46'1314.3
2015-May-01 02:32N 24°02' E 118°35'247 6.3
2015-Apr-29 11:31N 22°19' E 114°30'1516.3
2015-Apr-29 10:33N 22°08' E 114°19'1412.3
2015-Apr-29 09:24N 22°16' E 114°06'4 4.6
2015-Apr-29 08:29N 22°20' E 114°07'0 0.0
2015-Apr-29 07:16N 22°20' E 114°07'0 0.0
2015-Apr-29 06:10N 22°20' E 114°07'0 0.0
2015-Apr-29 05:09N 22°20' E 114°07'0 0.0
2015-Apr-29 04:33N 22°20' E 114°07'0 0.0
2015-Apr-29 03:33N 22°20' E 114°07'0 0.0
2015-Apr-29 02:08N 22°20' E 114°07'0 0.0
2015-Apr-29 01:32N 22°20' E 114°07'0 0.0
2015-Apr-29 00:31N 22°20' E 114°07'0 0.0
2015-Apr-28 23:28N 22°20' E 114°07'0 0.0
2015-Apr-28 22:30N 22°20' E 114°07'0 0.0
2015-Apr-28 21:30N 22°20' E 114°07'0 0.0
2015-Apr-28 20:33N 22°20' E 114°07'0 0.0
2015-Apr-28 19:32N 22°20' E 114°07'0 0.0
2015-Apr-28 18:29N 22°20' E 114°07'0 0.0
2015-Apr-28 17:31N 22°20' E 114°07'1 1.3
2015-Apr-28 16:33N 22°19' E 114°06'8 6.9
2015-Apr-28 15:22N 22°12' E 114°11'7 7.2
2015-Apr-28 14:27N 22°09' E 114°17'  
2015-Apr-24 13:32N 01°15' E 104°06'1110.9
2015-Apr-24 12:33N 01°13' E 103°55'6 6.0
2015-Apr-24 11:32N 01°10' E 103°50'6 6.3
2015-Apr-24 10:33N 01°14' E 103°55'8 7.8
2015-Apr-24 09:33N 01°16' E 104°02'5 5.3
2015-Apr-24 08:33N 01°16' E 104°07'7 7.4
2015-Apr-24 07:34N 01°15' E 104°00'7815.6
2015-Apr-24 02:34N 01°38' E 102°45'1918.6
2015-Apr-24 01:33N 01°46' E 102°29'  
2015-Apr-21 15:00N 06°12' E 093°24'   320 / 71011.610.8 28.523.630.0

Dump ship's entire track history